Time;durP1;ratioP1;P1;durP2;ratioP2;P2;SDS_P1;SDS_P2;PMS_P1;PMS_P2;Temp;Humidity;BMP_temperature;BMP_pressure;BME280_temperature;BME280_humidity;BME280_pressure;Samples;Min_cycle;Max_cycle;Signal;HPM_P1;HPM_P2
2022/12/09 00:01:13;;;;;;;44.78;19.23;;;;;;;1.98;100.00;98156.06;4485737;31;20096;-74
2022/12/09 00:03:41;;;;;;;46.03;18.33;;;;;;;2.05;100.00;98160.75;4485758;31;20068;-74
2022/12/09 00:06:19;;;;;;;43.63;20.27;;;;;;;2.04;100.00;98153.09;4480925;31;161707;-74
2022/12/09 00:08:47;;;;;;;41.70;19.52;;;;;;;2.10;100.00;98150.13;4479474;32;20127;-74
2022/12/09 00:11:15;;;;;;;44.53;17.65;;;;;;;2.10;100.00;98147.53;4470113;32;20088;-74
2022/12/09 00:13:42;;;;;;;44.67;20.05;;;;;;;2.08;100.00;98151.97;4470006;32;20088;-74
2022/12/09 00:16:12;;;;;;;45.60;19.75;;;;;;;2.05;100.00;98158.16;4470136;32;20163;-74
2022/12/09 00:18:40;;;;;;;42.05;19.83;;;;;;;1.85;100.00;98167.19;4470084;32;20101;-74
2022/12/09 00:21:21;;;;;;;45.53;19.83;;;;;;;1.80;100.00;98171.81;4477919;32;20096;-74
2022/12/09 00:23:50;;;;;;;45.72;19.85;;;;;;;1.83;100.00;98174.19;4485671;31;20441;-74
2022/12/09 00:26:18;;;;;;;40.25;18.70;;;;;;;1.86;100.00;98168.84;4485731;31;20096;-74
2022/12/09 00:28:46;;;;;;;43.72;18.73;;;;;;;1.88;100.00;98167.00;4485742;32;20092;-74
2022/12/09 00:31:17;;;;;;;51.37;19.62;;;;;;;1.83;100.00;98168.22;4485720;31;20119;-74
2022/12/09 00:33:45;;;;;;;55.15;21.37;;;;;;;1.78;100.00;98173.66;4485538;31;20072;-74
2022/12/09 00:36:20;;;;;;;44.95;18.40;;;;;;;1.68;100.00;98167.41;4485760;31;20665;-74
2022/12/09 00:38:48;;;;;;;43.17;20.83;;;;;;;1.78;100.00;98174.47;4485607;31;20442;-74
2022/12/09 00:41:16;;;;;;;41.53;19.60;;;;;;;1.78;100.00;98158.16;4485693;31;20100;-74
2022/12/09 00:43:44;;;;;;;50.45;20.73;;;;;;;1.77;100.00;98165.09;4485871;31;20119;-74
2022/12/09 00:46:12;;;;;;;52.50;23.60;;;;;;;1.82;100.00;98159.62;4485577;31;20164;-74
2022/12/09 00:48:41;;;;;;;47.25;21.27;;;;;;;1.83;100.00;98150.94;4485432;32;20156;-74
2022/12/09 00:51:10;;;;;;;46.45;21.48;;;;;;;1.85;100.00;98154.28;4485614;31;20100;-74
2022/12/09 00:53:37;;;;;;;46.88;20.08;;;;;;;1.95;100.00;98155.34;4484050;32;20092;-74
2022/12/09 00:56:05;;;;;;;48.87;21.60;;;;;;;1.91;100.00;98169.38;4485704;31;20161;-74
2022/12/09 00:58:33;;;;;;;43.03;19.60;;;;;;;1.97;100.00;98173.34;4484338;31;20501;-74
2022/12/09 01:01:00;;;;;;;45.50;19.80;;;;;;;1.95;100.00;98176.03;4485402;32;20119;-74
2022/12/09 01:03:27;;;;;;;46.20;20.73;;;;;;;2.01;100.00;98184.28;4485559;31;20092;-74
2022/12/09 01:05:55;;;;;;;47.55;21.35;;;;;;;2.06;100.00;98182.22;4485327;31;20126;-74
2022/12/09 01:08:23;;;;;;;52.35;20.90;;;;;;;1.93;100.00;98183.03;4481373;32;20607;-74
2022/12/09 01:10:50;;;;;;;45.63;20.52;;;;;;;1.83;100.00;98174.19;4470054;32;20119;-74
2022/12/09 01:13:17;;;;;;;47.92;20.67;;;;;;;1.89;100.00;98171.25;4469715;32;20425;-74
2022/12/09 01:15:46;;;;;;;45.63;19.42;;;;;;;1.90;100.00;98172.88;4469855;32;20127;-74
2022/12/09 01:18:13;;;;;;;41.25;19.33;;;;;;;2.08;100.00;98167.47;4469633;32;20093;-74
2022/12/09 01:20:40;;;;;;;48.05;20.90;;;;;;;2.03;100.00;98166.94;4474489;32;20165;-74
2022/12/09 01:23:08;;;;;;;45.15;20.98;;;;;;;2.03;100.00;98161.75;4485211;31;20173;-74
2022/12/09 01:25:36;;;;;;;48.80;20.10;;;;;;;1.96;100.00;98163.94;4485353;31;20180;-74
2022/12/09 01:28:04;;;;;;;48.25;21.55;;;;;;;1.94;100.00;98174.34;4485041;31;20092;-74
2022/12/09 01:30:31;;;;;;;52.25;22.33;;;;;;;2.03;100.00;98166.94;4485286;31;20516;-74
2022/12/09 01:32:58;;;;;;;46.35;21.95;;;;;;;2.03;100.00;98156.59;4485234;31;20115;-74
2022/12/09 01:35:25;;;;;;;45.95;20.30;;;;;;;2.03;100.00;98159.19;4485397;31;20103;-74
2022/12/09 01:37:53;;;;;;;46.97;20.67;;;;;;;1.92;100.00;98155.56;4484956;32;20119;-74
2022/12/09 01:40:20;;;;;;;41.50;19.62;;;;;;;1.99;100.00;98155.16;4485156;31;20633;-74
2022/12/09 01:42:49;;;;;;;42.67;18.62;;;;;;;2.09;100.00;98151.03;4485226;31;20096;-74
2022/12/09 01:45:29;;;;;;;43.15;19.73;;;;;;;2.02;100.00;98152.38;4485333;31;20093;-74
2022/12/09 01:48:06;;;;;;;40.33;19.75;;;;;;;1.92;100.00;98155.56;4485202;31;20114;-74
2022/12/09 01:50:35;;;;;;;41.30;18.75;;;;;;;1.98;100.00;98169.00;4483948;32;20092;-74
2022/12/09 01:53:02;;;;;;;44.83;19.80;;;;;;;2.09;100.00;98153.62;4485143;31;20140;-74
2022/12/09 01:55:31;;;;;;;47.20;21.12;;;;;;;2.18;100.00;98159.94;4485196;32;20469;-74
2022/12/09 01:57:59;;;;;;;49.10;20.42;;;;;;;2.25;100.00;98161.22;4485374;31;20426;-74
2022/12/09 02:00:26;;;;;;;48.58;21.10;;;;;;;2.19;100.00;98162.44;4485101;31;20096;-74
2022/12/09 02:02:56;;;;;;;42.70;20.05;;;;;;;2.11;100.00;98154.38;4484972;32;20171;-74
2022/12/09 02:05:24;;;;;;;42.95;20.25;;;;;;;2.05;100.00;98153.00;4484946;32;20167;-74
2022/12/09 02:07:51;;;;;;;45.17;19.60;;;;;;;2.09;100.00;98149.28;4483260;32;20161;-74
2022/12/09 02:10:19;;;;;;;46.08;20.02;;;;;;;2.06;100.00;98143.47;4469030;32;20092;-74
2022/12/09 02:13:23;;;;;;;49.97;20.83;;;;;;;2.02;100.00;98139.47;4468086;32;20097;-74
2022/12/09 02:15:56;;;;;;;47.35;19.92;;;;;;;1.89;100.00;98137.66;4455722;32;20111;-74
2022/12/09 02:18:37;;;;;;;48.25;21.12;;;;;;;1.87;100.00;98136.09;4469534;32;20097;-74
2022/12/09 02:21:17;;;;;;;48.17;20.27;;;;;;;1.86;100.00;98134.44;4468164;32;20496;-74
2022/12/09 02:23:50;;;;;;;52.65;19.70;;;;;;;1.82;100.00;98133.81;4469247;32;20465;-74
2022/12/09 02:26:20;;;;;;;46.75;21.60;;;;;;;1.97;100.00;98139.75;4469352;32;20092;-74
2022/12/09 02:29:24;;;;;;;48.72;21.00;;;;;;;1.95;100.00;98134.69;4469085;32;20494;-74
2022/12/09 02:32:02;;;;;;;46.25;21.27;;;;;;;1.96;100.00;98135.50;4469435;32;20089;-74
2022/12/09 02:34:31;;;;;;;46.20;20.17;;;;;;;2.11;100.00;98138.88;4468921;32;20102;-74
2022/12/09 02:37:23;;;;;;;46.35;21.02;;;;;;;2.06;100.00;98130.56;4469025;32;20162;-74
2022/12/09 02:39:58;;;;;;;49.50;21.80;;;;;;;1.94;100.00;98133.03;4467731;32;20424;-74
2022/12/09 02:42:33;;;;;;;46.72;18.62;;;;;;;2.04;100.00;98128.06;4468046;32;20096;-74
2022/12/09 02:45:06;;;;;;;46.55;21.80;;;;;;;2.07;100.00;98127.88;4467595;32;20104;-74
2022/12/09 02:47:38;;;;;;;51.85;22.65;;;;;;;1.90;100.00;98121.22;4467885;32;20166;-74
2022/12/09 02:50:12;;;;;;;53.25;23.05;;;;;;;1.82;100.00;98125.22;4467816;32;20108;-74
2022/12/09 02:52:41;;;;;;;;;;;;;;;1.90;100.00;98128.16;4468165;32;20096;-74
2022/12/09 02:55:09;;;;;;;47.33;20.02;;;;;;;1.86;100.00;98109.47;4467690;32;20036;-74
2022/12/09 02:57:39;;;;;;;51.80;20.92;;;;;;;1.87;100.00;98115.44;4468988;32;20166;-74
2022/12/09 03:00:07;;;;;;;50.33;20.45;;;;;;;1.83;100.00;98119.97;4467545;32;20174;-74
2022/12/09 03:02:38;;;;;;;48.87;21.80;;;;;;;1.89;100.00;98123.91;4468529;32;20096;-74
2022/12/09 03:05:11;;;;;;;50.75;21.85;;;;;;;1.93;100.00;98122.78;4469013;32;20163;-74
2022/12/09 03:07:53;;;;;;;50.67;21.60;;;;;;;2.03;100.00;98123.00;4468251;32;20112;-74
2022/12/09 03:10:56;;;;;;;59.15;23.65;;;;;;;2.00;100.00;98123.22;4467655;32;20112;-74
2022/12/09 03:14:01;;;;;;;47.90;20.10;;;;;;;2.05;100.00;98118.59;4404257;32;20136;-74
2022/12/09 03:16:33;;;;;;;51.05;20.33;;;;;;;2.20;100.00;98127.94;4403629;32;20142;-74
2022/12/09 03:19:04;;;;;;;52.72;22.45;;;;;;;2.21;100.00;98132.19;4404395;32;20128;-74
2022/12/09 03:21:34;;;;;;;54.35;22.10;;;;;;;2.23;100.00;98130.31;4414736;32;20188;-74
2022/12/09 03:24:02;;;;;;;47.33;20.37;;;;;;;2.12;100.00;98131.00;4421488;32;20492;-74
2022/12/09 03:26:30;;;;;;;45.88;20.65;;;;;;;2.11;100.00;98131.13;4408871;32;20113;-74
2022/12/09 03:28:59;;;;;;;46.97;21.00;;;;;;;2.17;100.00;98140.22;4421239;32;20313;-74
2022/12/09 03:31:29;;;;;;;52.78;22.15;;;;;;;2.20;100.00;98133.09;4421407;32;20110;-74
2022/12/09 03:34:01;;;;;;;55.53;22.02;;;;;;;2.20;100.00;98127.94;4421488;32;20120;-74
2022/12/09 03:36:34;;;;;;;52.62;22.27;;;;;;;2.13;100.00;98126.66;4421492;32;20208;-74
2022/12/09 03:39:05;;;;;;;46.08;20.50;;;;;;;2.18;100.00;98122.03;4421458;32;20534;-74
2022/12/09 03:41:33;;;;;;;51.78;21.90;;;;;;;2.13;100.00;98117.19;4408907;32;20213;-74
2022/12/09 03:44:11;;;;;;;51.67;22.27;;;;;;;2.27;100.00;98124.03;4421687;32;20092;-74
2022/12/09 03:46:38;;;;;;;53.90;22.60;;;;;;;2.36;100.00;98121.75;4421646;32;20149;-74
2022/12/09 03:49:06;;;;;;;58.15;22.90;;;;;;;2.22;100.00;98120.06;4446472;32;20119;-74
2022/12/09 03:51:44;;;;;;;57.50;23.23;;;;;;;2.16;100.00;98120.47;4470395;32;20156;-74
2022/12/09 03:54:28;;;;;;;56.50;21.48;;;;;;;2.20;100.00;98121.94;4469017;32;20081;-74
2022/12/09 03:56:56;;;;;;;55.45;23.48;;;;;;;2.29;100.00;98113.59;4469005;32;20434;-74
2022/12/09 03:59:28;;;;;;;48.65;22.13;;;;;;;2.13;100.00;98106.84;4470192;32;20147;-74
2022/12/09 04:01:55;;;;;;;57.50;23.90;;;;;;;2.15;100.00;98108.47;4469169;32;20093;-74
2022/12/09 04:04:23;;;;;;;55.97;22.48;;;;;;;2.13;100.00;98106.84;4470486;32;20077;-74
2022/12/09 04:06:52;;;;;;;70.68;22.58;;;;;;;2.21;100.00;98111.50;4470325;32;20089;-74
2022/12/09 04:09:19;;;;;;;59.40;23.25;;;;;;;2.08;100.00;98113.22;4479784;32;20479;-74
2022/12/09 04:11:46;;;;;;;55.12;23.38;;;;;;;2.18;100.00;98109.13;4486084;31;20123;-74
2022/12/09 04:14:14;;;;;;;55.35;22.02;;;;;;;2.12;100.00;98105.19;4485881;31;20096;-74
2022/12/09 04:16:43;;;;;;;66.03;22.37;;;;;;;2.05;100.00;98103.09;4485952;31;20092;-74
2022/12/09 04:19:10;;;;;;;65.28;21.77;;;;;;;1.97;100.00;98102.75;4485862;31;20096;-74
2022/12/09 04:21:37;;;;;;;55.25;22.90;;;;;;;2.01;100.00;98104.22;4474610;31;20089;-74
2022/12/09 04:24:05;;;;;;;64.15;23.25;;;;;;;1.98;100.00;98107.81;4470041;32;20155;-74
2022/12/09 04:26:33;;;;;;;75.25;24.25;;;;;;;2.02;100.00;98098.13;4470137;32;20127;-74
2022/12/09 04:29:00;;;;;;;59.85;22.35;;;;;;;2.06;100.00;98105.56;4470084;32;20457;-74
2022/12/09 04:31:27;;;;;;;60.00;22.45;;;;;;;2.05;100.00;98103.91;4470100;32;20453;-74
2022/12/09 04:33:55;;;;;;;57.75;22.62;;;;;;;2.01;100.00;98104.22;4469703;32;20139;-74
2022/12/09 04:36:22;;;;;;;64.10;23.85;;;;;;;2.05;100.00;98097.94;4469987;32;20089;-74
2022/12/09 04:38:49;;;;;;;72.47;25.12;;;;;;;1.95;100.00;98098.53;4469845;32;20096;-74
2022/12/09 04:41:17;;;;;;;70.72;25.08;;;;;;;2.01;100.00;98101.63;4469929;32;20117;-74
2022/12/09 04:43:44;;;;;;;63.08;24.48;;;;;;;2.11;100.00;98097.53;4469806;32;20498;-74
2022/12/09 04:46:14;;;;;;;69.18;23.02;;;;;;;2.09;100.00;98094.19;4469898;32;20089;-74
2022/12/09 04:48:43;;;;;;;61.45;23.27;;;;;;;2.17;100.00;98097.13;4469963;32;20513;-74
2022/12/09 04:51:11;;;;;;;77.25;24.90;;;;;;;2.24;100.00;98098.38;4469844;32;20093;-74
2022/12/09 04:53:39;;;;;;;69.07;22.90;;;;;;;2.23;100.00;98096.72;4469954;32;20088;-74
2022/12/09 04:56:11;;;;;;;80.53;24.60;;;;;;;2.39;100.00;98093.09;4469773;32;20116;-74
2022/12/09 04:58:39;;;;;;;77.37;24.87;;;;;;;2.36;100.00;98088.13;4469771;32;20081;-74
2022/12/09 05:01:08;;;;;;;69.82;23.62;;;;;;;2.45;100.00;98085.78;4469556;32;20096;-74
2022/12/09 05:03:36;;;;;;;99.13;24.30;;;;;;;2.44;100.00;98088.47;4469510;32;20180;-75
2022/12/09 05:06:09;;;;;;;73.53;23.77;;;;;;;2.51;100.00;98087.09;4469554;32;20534;-74
2022/12/09 05:08:37;;;;;;;66.65;22.08;;;;;;;2.55;100.00;98095.50;4474881;32;20156;-74
2022/12/09 05:11:05;;;;;;;82.85;23.83;;;;;;;2.54;100.00;98092.06;4485508;31;20469;-74
2022/12/09 05:13:33;;;;;;;125.00;25.35;;;;;;;2.50;100.00;98090.66;4484711;31;20110;-74
2022/12/09 05:16:02;;;;;;;82.68;24.77;;;;;;;2.45;100.00;98087.53;4484600;32;20288;-74
2022/12/09 05:18:29;;;;;;;122.45;24.40;;;;;;;2.47;100.00;98083.91;4485303;31;20093;-74
2022/12/09 05:20:56;;;;;;;95.75;24.37;;;;;;;2.42;100.00;98080.81;4483890;32;20504;-74
2022/12/09 05:23:24;;;;;;;165.60;26.45;;;;;;;2.39;100.00;98080.19;4484913;32;20158;-74
2022/12/09 05:25:54;;;;;;;128.45;23.40;;;;;;;2.38;100.00;98081.94;4485450;31;20104;-74
2022/12/09 05:28:21;;;;;;;106.85;24.37;;;;;;;2.42;100.00;98085.16;4485290;31;20373;-74
2022/12/09 05:30:49;;;;;;;133.77;25.58;;;;;;;2.40;100.00;98087.84;4484802;32;20458;-74
2022/12/09 05:33:16;;;;;;;160.52;27.05;;;;;;;2.41;100.00;98086.09;4484599;31;20163;-74
2022/12/09 05:35:44;;;;;;;144.52;25.35;;;;;;;2.41;100.00;98091.25;4484702;31;20118;-74
2022/12/09 05:38:19;;;;;;;149.27;23.95;;;;;;;2.36;100.00;98080.37;4484710;31;20130;-74
2022/12/09 05:40:46;;;;;;;142.98;25.75;;;;;;;2.35;100.00;98070.97;4485107;31;20156;-75
2022/12/09 05:43:13;;;;;;;153.05;26.65;;;;;;;2.33;100.00;98076.25;4484690;31;20492;-74
2022/12/09 05:45:41;;;;;;;141.85;24.33;;;;;;;2.26;100.00;98078.41;4484465;32;20116;-72
2022/12/09 05:48:08;;;;;;;139.52;25.55;;;;;;;2.31;100.00;98073.75;4472832;32;20158;-73
2022/12/09 05:50:36;;;;;;;122.37;25.37;;;;;;;2.33;100.00;98071.06;4467715;32;20093;-73
2022/12/09 05:53:03;;;;;;;219.30;27.33;;;;;;;2.23;100.00;98070.88;4479677;32;20116;-73
2022/12/09 05:55:30;;;;;;;205.23;29.40;;;;;;;2.23;100.00;98064.87;4484405;31;20685;-72
2022/12/09 05:57:58;;;;;;;206.60;29.87;;;;;;;2.06;100.00;98065.97;4484521;31;20097;-73
2022/12/09 06:00:25;;;;;;;157.98;25.08;;;;;;;2.15;100.00;98062.81;4484202;32;20171;-73
2022/12/09 06:02:53;;;;;;;135.10;23.40;;;;;;;2.19;100.00;98061.66;4483463;32;20155;-73
2022/12/09 06:05:21;;;;;;;139.32;26.52;;;;;;;2.19;100.00;98063.44;4484353;31;20091;-73
2022/12/09 06:07:48;;;;;;;162.25;26.70;;;;;;;2.22;100.00;98065.81;4484264;31;20130;-72
2022/12/09 06:10:16;;;;;;;202.68;28.75;;;;;;;2.31;100.00;98067.78;4469294;32;20147;-74
2022/12/09 06:12:44;;;;;;;113.22;25.42;;;;;;;2.30;100.00;98059.19;4467951;32;20089;-73
2022/12/09 06:15:12;;;;;;;169.40;27.42;;;;;;;2.29;100.00;98060.13;4471778;32;20122;-74
2022/12/09 06:17:49;;;;;;;146.57;25.65;;;;;;;2.36;100.00;98065.69;4480780;32;20115;-74
2022/12/09 06:20:17;;;;;;;183.45;27.02;;;;;;;2.38;100.00;98061.28;4484345;31;20126;-74
2022/12/09 06:22:44;;;;;;;281.20;29.77;;;;;;;2.26;100.00;98059.50;4483823;31;20138;-75
2022/12/09 06:25:12;;;;;;;337.00;35.38;;;;;;;2.23;100.00;98065.69;4484489;31;20164;-73
2022/12/09 06:27:39;;;;;;;276.92;32.20;;;;;;;2.11;100.00;98062.16;4484352;31;20188;-74
2022/12/09 06:30:07;;;;;;;256.77;28.67;;;;;;;2.27;100.00;98068.91;4483942;31;20084;-73
2022/12/09 06:32:35;;;;;;;249.43;25.92;;;;;;;2.19;100.00;98068.59;4483504;31;20231;-73
2022/12/09 06:35:02;;;;;;;195.57;28.17;;;;;;;2.21;100.00;98061.56;4483959;31;20100;-74
2022/12/09 06:37:31;;;;;;;239.40;30.42;;;;;;;2.36;100.00;98067.47;4483292;32;20180;-74
2022/12/09 06:39:59;;;;;;;204.27;28.38;;;;;;;2.36;100.00;98059.72;4484107;32;20093;-74
2022/12/09 06:42:26;;;;;;;134.07;22.05;;;;;;;2.24;100.00;98058.78;4483652;31;20152;-74
2022/12/09 06:44:53;;;;;;;230.27;29.20;;;;;;;2.35;100.00;98060.62;4483876;32;21072;-75
2022/12/09 06:47:21;;;;;;;162.73;24.02;;;;;;;2.35;100.00;98060.62;4483743;32;20089;-74
2022/12/09 06:49:48;;;;;;;206.55;26.48;;;;;;;2.35;100.00;98063.22;4482688;31;20473;-74
2022/12/09 06:52:16;;;;;;;226.27;26.27;;;;;;;2.44;100.00;98063.44;4483418;31;20155;-74
2022/12/09 06:54:43;;;;;;;302.73;31.55;;;;;;;2.30;100.00;98054.03;4483180;31;20116;-72
2022/12/09 06:57:11;;;;;;;164.02;25.88;;;;;;;2.38;100.00;98047.53;4484442;31;20154;-72
2022/12/09 06:59:38;;;;;;;171.55;25.02;;;;;;;2.31;100.00;98047.09;4485191;32;20126;-73
2022/12/09 07:02:06;;;;;;;229.10;27.90;;;;;;;2.40;100.00;98043.88;4485141;32;20092;-73
2022/12/09 07:04:34;;;;;;;151.02;24.23;;;;;;;2.34;100.00;98046.88;4483189;32;20096;-73
2022/12/09 07:07:01;;;;;;;207.12;24.52;;;;;;;2.39;100.00;98044.84;4475745;31;20115;-71
2022/12/09 07:09:29;;;;;;;313.58;31.52;;;;;;;2.47;100.00;98041.72;4474737;32;20481;-73
2022/12/09 07:11:56;;;;;;;158.32;23.73;;;;;;;2.34;100.00;98033.97;4480399;32;20701;-73
2022/12/09 07:14:24;;;;;;;150.00;24.90;;;;;;;2.45;100.00;98046.16;4483862;31;20504;-73
2022/12/09 07:16:51;;;;;;;162.60;25.58;;;;;;;2.54;100.00;98045.53;4484610;31;20180;-72
2022/12/09 07:19:21;;;;;;;189.07;26.10;;;;;;;2.52;100.00;98044.81;4484320;32;20084;-72
2022/12/09 07:21:49;;;;;;;275.23;30.67;;;;;;;2.64;100.00;98043.16;4476697;31;20820;-72
2022/12/09 07:24:18;;;;;;;196.07;25.23;;;;;;;2.46;100.00;98047.81;4479533;31;20175;-72
2022/12/09 07:26:46;;;;;;;327.23;31.37;;;;;;;2.51;100.00;98047.50;4469851;32;20085;-71
2022/12/09 07:29:14;;;;;;;266.88;29.25;;;;;;;2.45;100.00;98049.59;4483617;31;20503;-71
2022/12/09 07:31:42;;;;;;;314.42;31.10;;;;;;;2.51;100.00;98045.75;4483296;32;20118;-72
2022/12/09 07:34:10;;;;;;;211.60;25.08;;;;;;;2.52;100.00;98050.00;4483768;32;20115;-72
2022/12/09 07:36:37;;;;;;;239.65;26.90;;;;;;;2.65;100.00;98048.22;4484327;31;20096;-71
2022/12/09 07:39:10;;;;;;;259.05;27.70;;;;;;;2.71;100.00;98038.38;4484890;32;20112;-71
2022/12/09 07:41:38;;;;;;;321.52;30.30;;;;;;;2.64;100.00;98041.41;4484333;31;20084;-72
2022/12/09 07:44:07;;;;;;;226.18;23.77;;;;;;;2.63;100.00;98037.19;4484315;31;20193;-72
2022/12/09 07:46:34;;;;;;;343.73;29.67;;;;;;;2.69;100.00;98040.25;4485261;32;20123;-72
2022/12/09 07:49:03;;;;;;;249.90;26.92;;;;;;;2.61;100.00;98038.19;4485350;31;20127;-72
2022/12/09 07:51:31;;;;;;;290.02;29.73;;;;;;;2.58;100.00;98035.81;4484635;32;21212;-72
2022/12/09 07:53:58;;;;;;;368.00;32.15;;;;;;;2.57;100.00;98031.56;4484324;31;20107;-72
2022/12/09 07:56:27;;;;;;;345.52;30.77;;;;;;;2.62;100.00;98030.34;4483937;32;20105;-72
2022/12/09 07:58:55;;;;;;;184.77;24.98;;;;;;;2.59;100.00;98030.56;4471287;32;20157;-72
2022/12/09 08:01:26;;;;;;;188.90;23.65;;;;;;;2.69;100.00;98030.72;4482679;31;20407;-72
2022/12/09 08:03:54;;;;;;;158.48;22.48;;;;;;;2.62;100.00;98025.16;4481135;32;20092;-73
2022/12/09 08:06:25;;;;;;;178.52;23.62;;;;;;;2.79;100.00;98026.59;4483478;31;20119;-72
2022/12/09 08:08:54;;;;;;;234.65;24.55;;;;;;;2.82;100.00;98031.53;4477192;32;20104;-74
2022/12/09 08:11:24;;;;;;;256.15;26.75;;;;;;;3.08;100.00;98028.91;4483107;32;20142;-72
2022/12/09 08:13:56;;;;;;;184.55;23.60;;;;;;;2.98;100.00;98020.97;4482509;31;20097;-71
2022/12/09 08:16:23;;;;;;;183.62;24.75;;;;;;;3.01;100.00;98015.56;4479012;31;20484;-73
2022/12/09 08:18:53;;;;;;;203.60;25.50;;;;;;;3.05;100.00;98020.53;4481853;31;20195;-72
2022/12/09 08:21:27;;;;;;;139.60;22.33;;;;;;;3.07;100.00;98013.47;4482466;31;20088;-72
2022/12/09 08:23:57;;;;;;;94.30;18.90;;;;;;;3.04;100.00;98008.53;4482098;32;20089;-71
2022/12/09 08:26:27;;;;;;;147.98;21.55;;;;;;;3.09;100.00;98009.00;4482537;32;20093;-74
2022/12/09 08:28:55;;;;;;;110.50;19.42;;;;;;;3.12;100.00;98008.78;4484046;31;20103;-73
2022/12/09 08:31:24;;;;;;;110.90;20.35;;;;;;;3.16;100.00;97997.28;4485419;31;20096;-72
2022/12/09 08:33:52;;;;;;;79.10;17.77;;;;;;;3.17;100.00;97998.94;4483258;32;20513;-73
2022/12/09 08:36:24;;;;;;;90.22;20.42;;;;;;;3.15;100.00;98001.66;4479448;31;20487;-72
2022/12/09 08:38:53;;;;;;;58.13;17.90;;;;;;;3.08;100.00;97997.03;4483182;32;20114;-73
2022/12/09 08:41:33;;;;;;;43.20;14.93;;;;;;;3.24;100.00;97999.31;4483469;31;20131;-74
2022/12/09 08:44:05;;;;;;;79.68;19.20;;;;;;;3.28;100.00;97993.00;4472762;31;20415;-73
2022/12/09 08:46:34;;;;;;;78.82;20.35;;;;;;;3.21;100.00;97982.28;4482979;31;20105;-73
2022/12/09 08:49:02;;;;;;;47.65;18.77;;;;;;;3.18;100.00;97985.09;4484821;31;22099;-74
2022/12/09 08:51:30;;;;;;;50.72;17.80;;;;;;;3.24;100.00;97986.38;4483219;32;20167;-72
2022/12/09 08:53:58;;;;;;;51.20;18.60;;;;;;;3.28;100.00;97991.22;4483942;31;20093;-74
2022/12/09 08:56:26;;;;;;;59.08;20.92;;;;;;;3.23;100.00;97982.16;4484018;31;20123;-73
2022/12/09 08:58:54;;;;;;;63.45;20.40;;;;;;;3.34;100.00;97977.84;4484197;31;20521;-72
2022/12/09 09:01:25;;;;;;;77.72;19.62;;;;;;;3.44;100.00;97978.03;4484217;31;20092;-74
2022/12/09 09:03:52;;;;;;;82.68;20.65;;;;;;;3.39;100.00;97969.75;4483453;31;20145;-75
2022/12/09 09:06:20;;;;;;;44.22;15.25;;;;;;;3.37;100.00;97959.50;4483497;32;20180;-75
2022/12/09 09:08:48;;;;;;;50.80;18.52;;;;;;;3.37;100.00;97959.50;4482679;32;20138;-72
2022/12/09 09:11:17;;;;;;;39.42;17.85;;;;;;;3.34;100.00;97969.25;4483775;31;20088;-73
2022/12/09 09:13:47;;;;;;;32.63;14.45;;;;;;;3.34;100.00;97972.66;4480347;32;20578;-72
2022/12/09 09:16:21;;;;;;;39.75;15.35;;;;;;;3.27;100.00;97968.91;4484227;31;20083;-72
2022/12/09 09:18:49;;;;;;;50.30;18.48;;;;;;;3.36;100.00;97970.81;4478465;31;20092;-72
2022/12/09 09:21:20;;;;;;;39.97;16.02;;;;;;;3.25;100.00;97957.81;4476777;31;20149;-72
2022/12/09 09:23:48;;;;;;;49.42;18.87;;;;;;;3.29;100.00;97955.84;4476447;31;20450;-71
2022/12/09 09:26:17;;;;;;;65.68;19.50;;;;;;;3.33;100.00;97958.09;4477036;32;20116;-72
2022/12/09 09:28:45;;;;;;;36.75;13.73;;;;;;;3.36;100.00;97950.09;4475970;32;20586;-71
2022/12/09 09:31:16;;;;;;;48.97;17.67;;;;;;;3.27;100.00;97953.34;4480750;31;20141;-71
2022/12/09 09:33:44;;;;;;;32.35;15.27;;;;;;;3.34;100.00;97939.00;4473826;32;20084;-72
2022/12/09 09:36:15;;;;;;;41.05;17.67;;;;;;;3.38;100.00;97944.81;4475138;32;20183;-72
2022/12/09 09:38:42;;;;;;;50.20;17.60;;;;;;;3.39;100.00;97930.91;4477543;32;20100;-71
2022/12/09 09:41:18;;;;;;;45.35;19.05;;;;;;;3.36;100.00;97934.56;4474782;31;20155;-73
2022/12/09 09:43:46;;;;;;;46.88;17.05;;;;;;;3.46;100.00;97933.88;4474898;32;20482;-74
2022/12/09 09:46:31;;;;;;;45.05;16.70;;;;;;;3.45;100.00;97934.81;4476663;32;20168;-72
2022/12/09 09:49:01;;;;;;;47.95;17.45;;;;;;;3.37;100.00;97920.66;4475745;32;20152;-73
2022/12/09 09:51:31;;;;;;;47.22;18.25;;;;;;;3.48;100.00;97921.66;4476235;32;20166;-72
2022/12/09 09:54:03;;;;;;;43.67;17.15;;;;;;;3.57;100.00;97920.97;4474680;32;20084;-72
2022/12/09 09:56:44;;;;;;;48.78;18.35;;;;;;;3.51;100.00;97908.47;4478116;31;20148;-72
2022/12/09 09:59:31;;;;;;;47.05;18.45;;;;;;;3.47;100.00;97905.28;4477131;32;20123;-73
2022/12/09 10:02:38;;;;;;;48.53;17.05;;;;;;;3.41;100.00;97889.37;4476639;32;20155;-72
2022/12/09 10:05:18;;;;;;;54.28;17.50;;;;;;;3.43;100.00;97883.16;4474936;32;20484;-73
2022/12/09 10:08:12;;;;;;;50.80;16.55;;;;;;;3.44;100.00;97874.44;4467089;32;20156;-73
2022/12/09 10:11:00;;;;;;;46.27;17.57;;;;;;;3.45;100.00;97867.50;4416208;32;20147;-72
2022/12/09 10:13:53;;;;;;;44.00;14.45;;;;;;;3.48;100.00;97857.75;4418136;32;20110;-74
2022/12/09 10:17:13;;;;;;;45.38;15.35;;;;;;;3.42;100.00;97837.47;4387504;32;20121;-72
2022/12/09 10:19:45;;;;;;;46.72;16.92;;;;;;;3.28;100.00;97845.47;4365579;32;20098;-72
2022/12/09 10:22:16;;;;;;;47.72;15.18;;;;;;;3.19;100.00;97834.03;4376309;32;20153;-72
2022/12/09 10:24:58;;;;;;;49.35;16.70;;;;;;;3.13;100.00;97824.13;4374964;32;20110;-73
2022/12/09 10:27:44;;;;;;;49.22;18.48;;;;;;;3.17;100.00;97808.25;4388991;32;20460;-72
2022/12/09 10:30:16;;;;;;;54.90;18.67;;;;;;;3.11;100.00;97813.06;4375483;32;20138;-73
2022/12/09 10:32:45;;;;;;;45.12;16.10;;;;;;;3.18;100.00;97793.56;4386816;32;20119;-74
2022/12/09 10:35:12;;;;;;;41.90;15.15;;;;;;;3.15;100.00;97786.84;4388349;32;20106;-73
2022/12/09 10:37:40;;;;;;;40.95;15.00;;;;;;;3.20;100.00;97779.56;4387800;32;20134;-72
2022/12/09 10:40:10;;;;;;;52.38;16.58;;;;;;;3.15;100.00;97770.47;4383996;32;20118;-72
2022/12/09 10:45:48;;;;;;;45.97;14.75;;;;;;;3.25;100.00;97766.28;4375348;32;21424;-74
2022/12/09 10:48:46;;;;;;;43.67;15.05;;;;;;;3.32;100.00;97745.94;4406894;32;21057;-74
2022/12/09 10:51:25;;;;;;;57.00;17.42;;;;;;;3.21;100.00;97751.94;4430514;32;20647;-74
2022/12/09 10:53:57;;;;;;;56.72;16.70;;;;;;;3.32;100.00;97744.16;4461197;32;20089;-73
2022/12/09 10:56:29;;;;;;;70.05;18.92;;;;;;;3.34;100.00;97757.00;4479617;32;20152;-72
2022/12/09 10:59:18;;;;;;;48.47;16.87;;;;;;;3.33;100.00;97745.81;4482053;32;20076;-73
2022/12/09 11:01:57;;;;;;;49.97;17.48;;;;;;;3.36;100.00;97734.38;4482628;31;20190;-73
2022/12/09 11:04:29;;;;;;;53.33;17.80;;;;;;;3.33;100.00;97735.47;4482463;31;20157;-73
2022/12/09 11:07:02;;;;;;;40.20;15.40;;;;;;;3.28;100.00;97716.03;4482396;31;20108;-73
2022/12/09 11:09:33;;;;;;;42.10;16.27;;;;;;;3.24;100.00;97709.44;4475036;31;20487;-74
2022/12/09 11:12:04;;;;;;;43.65;15.65;;;;;;;3.28;100.00;97714.25;4480932;32;20122;-73
2022/12/09 11:14:38;;;;;;;37.63;15.05;;;;;;;3.30;100.00;97709.81;4481812;32;20136;-73
2022/12/09 11:17:17;;;;;;;38.05;13.57;;;;;;;3.29;100.00;97699.59;4481660;32;20485;-73
2022/12/09 11:19:49;;;;;;;37.40;15.75;;;;;;;3.31;100.00;97689.91;4482459;31;20085;-73
2022/12/09 11:22:22;;;;;;;44.33;18.02;;;;;;;3.29;100.00;97694.41;4475587;32;20362;-73
2022/12/09 11:24:53;;;;;;;44.33;17.92;;;;;;;3.25;100.00;97696.38;4470141;32;20114;-74
2022/12/09 11:27:32;;;;;;;41.45;15.95;;;;;;;3.34;100.00;97705.22;4481141;32;20437;-74
2022/12/09 11:30:29;;;;;;;37.72;16.05;;;;;;;3.37;100.00;97699.81;4483345;31;20102;-73
2022/12/09 11:33:05;;;;;;;32.55;13.62;;;;;;;3.40;100.00;97694.38;4482393;31;20195;-73
2022/12/09 11:35:38;;;;;;;32.50;13.57;;;;;;;3.50;100.00;97702.28;4480218;31;20100;-75